Terminal Aerodrome Forecast
Issued by NWS

Home | Current Version | Previous Version | Text Only | Print | Product List | Glossary On
Versions: 1 2 3 4 5 6 7 8 9 10 11 12 13 14 15 16 17 18 19
000
FTUS42 KFFC 282116 AAA
TAFFTY
TAF AMD
KFTY 282116Z 2821/2918 VRB03KT P6SM OVC015
     FM290100 00000KT 4SM -RA BR OVC005
     FM290600 00000KT 1SM -RA BR OVC005
     FM291300 00000KT 3SM BR OVC006=

USA.gov is the U.S. government's official web portal to all federal, state and local government web resources and services.